createdAt,value
2022-10-12T00:00:09.470Z,18.90
2022-10-12T00:02:11.340Z,16.70
2022-10-12T00:04:13.011Z,17.57
2022-10-12T00:06:20.322Z,18.17
2022-10-12T00:08:21.940Z,18.57
2022-10-12T00:10:23.756Z,19.30
2022-10-12T00:12:25.471Z,18.20
2022-10-12T00:14:27.169Z,19.07
2022-10-12T00:16:31.859Z,18.37
2022-10-12T00:18:34.722Z,20.00
2022-10-12T00:20:36.502Z,20.97
2022-10-12T00:22:38.173Z,20.60
2022-10-12T00:24:42.865Z,22.87
2022-10-12T00:26:44.889Z,23.40
2022-10-12T00:28:47.150Z,25.00
2022-10-12T00:30:48.864Z,24.20
2022-10-12T00:32:50.480Z,24.37
2022-10-12T00:34:52.105Z,24.43
2022-10-12T00:36:55.697Z,23.57
2022-10-12T00:38:57.354Z,24.13
2022-10-12T00:40:59.172Z,26.10
2022-10-12T00:43:01.434Z,24.77
2022-10-12T00:45:03.356Z,25.07
2022-10-12T00:47:30.532Z,26.43
2022-10-12T00:49:33.040Z,23.87
2022-10-12T00:51:34.844Z,26.47
2022-10-12T00:53:42.787Z,25.00
2022-10-12T00:55:48.876Z,25.60
2022-10-12T00:57:53.044Z,23.40
2022-10-12T01:00:02.228Z,25.43
2022-10-12T01:02:03.955Z,24.07
2022-10-12T01:04:06.502Z,24.30
2022-10-12T01:06:09.066Z,24.83
2022-10-12T01:08:11.023Z,24.53
2022-10-12T01:10:13.182Z,24.40
2022-10-12T01:12:16.205Z,24.30
2022-10-12T01:14:18.033Z,22.63
2022-10-12T01:16:46.603Z,25.90
2022-10-12T01:19:09.879Z,24.23
2022-10-12T01:21:19.486Z,25.07
2022-10-12T01:23:45.567Z,22.93
2022-10-12T01:26:21.110Z,24.73
2022-10-12T01:28:50.632Z,23.73
2022-10-12T01:31:00.433Z,22.50
2022-10-12T01:33:17.973Z,22.90
2022-10-12T01:35:57.545Z,22.30
2022-10-12T01:38:17.105Z,22.83
2022-10-12T01:40:49.283Z,24.50
2022-10-12T01:42:51.482Z,25.00
2022-10-12T01:45:05.670Z,25.80
2022-10-12T01:47:07.341Z,23.10
2022-10-12T01:49:09.765Z,25.97
2022-10-12T01:51:16.435Z,26.03
2022-10-12T01:53:36.246Z,23.70
2022-10-12T01:55:54.009Z,24.83
2022-10-12T01:58:31.524Z,26.07
2022-10-12T02:00:42.152Z,27.17
2022-10-12T02:03:04.907Z,28.10
2022-10-12T02:05:27.061Z,25.70
2022-10-12T02:07:48.298Z,29.27
2022-10-12T02:09:52.325Z,28.70
2022-10-12T02:11:58.358Z,28.87
2022-10-12T02:14:22.778Z,29.00
2022-10-12T02:16:30.598Z,28.80
2022-10-12T02:18:34.230Z,29.73
2022-10-12T02:20:38.403Z,29.67
2022-10-12T02:22:42.896Z,30.90
2022-10-12T02:24:48.321Z,30.27
2022-10-12T02:26:53.506Z,30.07
2022-10-12T02:28:55.752Z,29.37
2022-10-12T02:31:10.594Z,33.30
2022-10-12T02:33:27.176Z,32.13
2022-10-12T02:35:45.741Z,32.30
2022-10-12T02:37:54.848Z,31.67
2022-10-12T02:40:06.705Z,32.90
2022-10-12T02:42:16.606Z,33.10
2022-10-12T02:44:25.022Z,33.83
2022-10-12T02:46:28.971Z,34.03
2022-10-12T02:48:32.102Z,35.27
2022-10-12T02:50:34.719Z,33.30
2022-10-12T02:52:36.638Z,35.47
2022-10-12T02:54:39.561Z,33.73
2022-10-12T02:56:50.488Z,33.90
2022-10-12T02:58:52.146Z,34.07
2022-10-12T03:00:53.917Z,34.67
2022-10-12T03:02:55.562Z,35.20
2022-10-12T03:04:57.212Z,35.70
2022-10-12T03:06:58.925Z,33.40
2022-10-12T03:09:01.588Z,33.27
2022-10-12T03:11:05.250Z,31.53
2022-10-12T03:13:06.869Z,32.90
2022-10-12T03:15:08.738Z,31.60
2022-10-12T03:17:10.543Z,30.77
2022-10-12T03:19:12.538Z,31.73
2022-10-12T03:21:14.285Z,31.90
2022-10-12T03:23:15.890Z,30.20
2022-10-12T03:25:17.501Z,29.37
2022-10-12T03:27:19.163Z,29.97
2022-10-12T03:29:20.824Z,30.30
2022-10-12T03:31:22.572Z,29.50
2022-10-12T03:33:24.334Z,28.47
2022-10-12T03:35:26.065Z,29.37
2022-10-12T03:37:27.667Z,27.70
2022-10-12T03:39:29.313Z,31.50
2022-10-12T03:41:30.950Z,29.70
2022-10-12T03:43:32.806Z,28.60
2022-10-12T03:45:35.702Z,28.87
2022-10-12T03:47:38.056Z,29.50
2022-10-12T03:49:40.078Z,27.47
2022-10-12T03:51:41.751Z,26.47
2022-10-12T03:53:45.495Z,27.00
2022-10-12T03:55:47.402Z,28.23
2022-10-12T03:57:49.446Z,25.37
2022-10-12T03:59:51.193Z,25.90
2022-10-12T04:01:52.998Z,28.17
2022-10-12T04:03:54.694Z,27.53
2022-10-12T04:05:57.931Z,27.60
2022-10-12T04:07:59.614Z,27.37
2022-10-12T04:10:01.262Z,28.47
2022-10-12T04:12:02.930Z,29.20
2022-10-12T04:14:04.697Z,30.20
2022-10-12T04:16:07.766Z,29.27
2022-10-12T04:18:09.466Z,32.30
2022-10-12T04:20:12.117Z,32.43
2022-10-12T04:22:14.107Z,28.57
2022-10-12T04:24:15.842Z,32.10
2022-10-12T04:26:17.526Z,33.27
2022-10-12T04:28:19.412Z,32.67
2022-10-12T04:30:21.074Z,33.80
2022-10-12T04:32:22.814Z,35.67
2022-10-12T04:34:24.620Z,33.73
2022-10-12T04:36:26.800Z,36.10
2022-10-12T04:38:28.466Z,36.27
2022-10-12T04:40:30.279Z,36.00
2022-10-12T04:42:31.908Z,36.50
2022-10-12T04:44:33.914Z,37.83
2022-10-12T04:46:35.586Z,37.20
2022-10-12T04:48:37.406Z,35.97
2022-10-12T04:50:39.146Z,37.40
2022-10-12T04:52:40.871Z,39.37
2022-10-12T04:54:42.524Z,39.70
2022-10-12T04:56:47.682Z,38.17
2022-10-12T04:58:49.873Z,39.10
2022-10-12T05:00:51.530Z,39.60
2022-10-12T05:02:53.125Z,38.43
2022-10-12T05:04:54.804Z,40.60
2022-10-12T05:06:56.425Z,40.20
2022-10-12T05:08:58.013Z,39.70
2022-10-12T05:10:59.709Z,40.60
2022-10-12T05:13:01.392Z,39.57
2022-10-12T05:15:03.420Z,39.50
2022-10-12T05:17:05.032Z,38.70
2022-10-12T05:19:06.667Z,39.83
2022-10-12T05:21:08.404Z,40.03
2022-10-12T05:23:11.481Z,42.30
2022-10-12T05:25:13.390Z,36.53
2022-10-12T05:27:15.014Z,37.37
2022-10-12T05:29:16.630Z,37.87
2022-10-12T05:31:18.393Z,37.47
2022-10-12T05:33:20.317Z,38.40
2022-10-12T05:35:22.158Z,38.03
2022-10-12T05:37:24.956Z,38.40
2022-10-12T05:39:26.632Z,37.30
2022-10-12T05:41:28.696Z,37.33
2022-10-12T05:43:30.522Z,38.57
2022-10-12T05:45:32.296Z,37.77
2022-10-12T05:47:33.965Z,37.40
2022-10-12T05:49:35.593Z,36.50
2022-10-12T05:51:38.910Z,37.67
2022-10-12T05:53:40.559Z,38.23
2022-10-12T05:55:58.729Z,35.07
2022-10-12T05:58:00.426Z,37.20
2022-10-12T06:00:02.374Z,37.30
2022-10-12T06:02:04.037Z,35.97
2022-10-12T06:04:05.738Z,35.93
2022-10-12T06:06:07.876Z,33.27
2022-10-12T06:08:10.233Z,35.57
2022-10-12T06:10:12.802Z,35.07
2022-10-12T06:12:14.708Z,33.10
2022-10-12T06:14:16.516Z,35.50
2022-10-12T06:16:18.194Z,34.33
2022-10-12T06:18:20.146Z,34.93
2022-10-12T06:20:21.784Z,32.33
2022-10-12T06:22:23.394Z,32.03
2022-10-12T06:24:25.073Z,31.10
2022-10-12T06:26:26.800Z,30.97
2022-10-12T06:28:28.487Z,29.80
2022-10-12T06:30:30.147Z,29.13
2022-10-12T06:32:31.848Z,28.43
2022-10-12T06:34:33.480Z,27.57
2022-10-12T06:36:35.162Z,30.50
2022-10-12T06:38:36.790Z,29.33
2022-10-12T06:40:38.421Z,29.50
2022-10-12T06:42:40.348Z,27.50
2022-10-12T06:44:42.377Z,29.60
2022-10-12T06:46:43.982Z,28.50
2022-10-12T06:48:45.724Z,28.73
2022-10-12T06:50:47.729Z,28.70
2022-10-12T06:52:49.313Z,28.00
2022-10-12T06:54:50.934Z,25.40
2022-10-12T06:56:56.625Z,27.37
2022-10-12T06:59:00.361Z,27.93
2022-10-12T07:01:07.010Z,28.63
2022-10-12T07:03:12.847Z,26.20
2022-10-12T07:05:15.344Z,23.60
2022-10-12T07:07:17.153Z,24.37
2022-10-12T07:09:18.830Z,22.27
2022-10-12T07:11:20.541Z,24.90
2022-10-12T07:13:22.173Z,23.57
2022-10-12T07:15:23.818Z,24.40
2022-10-12T07:17:25.466Z,23.93
2022-10-12T07:19:27.118Z,22.20
2022-10-12T07:21:28.762Z,21.83
2022-10-12T07:23:32.107Z,22.80
2022-10-12T07:25:33.726Z,22.63
2022-10-12T07:27:35.584Z,22.63
2022-10-12T07:29:38.633Z,21.33
2022-10-12T07:31:42.179Z,20.13
2022-10-12T07:33:43.814Z,22.20
2022-10-12T07:36:13.475Z,22.30
2022-10-12T07:38:15.787Z,21.97
2022-10-12T07:40:17.444Z,20.73
2022-10-12T07:42:19.722Z,20.43
2022-10-12T07:44:22.760Z,22.00
2022-10-12T07:46:25.894Z,21.70
2022-10-12T07:48:27.506Z,19.93
2022-10-12T07:50:29.356Z,20.67
2022-10-12T07:52:32.487Z,20.30
2022-10-12T07:54:34.203Z,20.73
2022-10-12T07:56:36.089Z,19.90
2022-10-12T07:58:37.694Z,20.50
2022-10-12T08:00:39.644Z,19.90
2022-10-12T08:02:41.305Z,19.53
2022-10-12T08:04:42.950Z,19.10
2022-10-12T08:06:44.706Z,17.90
2022-10-12T08:08:46.858Z,19.90
2022-10-12T08:10:48.490Z,20.07
2022-10-12T08:12:52.273Z,18.10
2022-10-12T08:14:54.090Z,19.70
2022-10-12T08:16:55.909Z,19.17
2022-10-12T08:18:57.526Z,19.27
2022-10-12T08:20:59.146Z,19.90
2022-10-12T08:23:00.828Z,20.77
2022-10-12T08:25:02.572Z,19.97
2022-10-12T08:27:04.260Z,19.57
2022-10-12T08:29:08.320Z,19.43
2022-10-12T08:31:13.121Z,17.30
2022-10-12T08:33:15.591Z,19.13
2022-10-12T08:35:17.399Z,17.73
2022-10-12T08:37:19.130Z,18.60
2022-10-12T08:39:21.143Z,19.13
2022-10-12T08:41:52.077Z,18.70
2022-10-12T08:44:14.667Z,18.03
2022-10-12T08:46:21.228Z,18.27
2022-10-12T08:48:37.016Z,18.40
2022-10-12T08:50:43.703Z,17.57
2022-10-12T08:53:22.783Z,17.97
2022-10-12T08:55:40.682Z,16.90
2022-10-12T08:57:46.366Z,17.27
2022-10-12T08:59:51.478Z,17.70
2022-10-12T09:02:25.563Z,15.97
2022-10-12T09:04:49.015Z,16.40
2022-10-12T09:07:11.859Z,16.20
2022-10-12T09:09:44.619Z,16.37
2022-10-12T09:12:08.653Z,16.83
2022-10-12T09:14:23.777Z,16.80
2022-10-12T09:16:29.421Z,15.83
2022-10-12T09:18:43.728Z,15.50
2022-10-12T09:20:51.147Z,13.93
2022-10-12T09:23:00.693Z,15.27
2022-10-12T09:25:02.989Z,15.27
2022-10-12T09:27:17.027Z,14.23
2022-10-12T09:29:24.197Z,15.40
2022-10-12T09:31:40.635Z,13.57
2022-10-12T09:33:57.460Z,14.00
2022-10-12T09:35:59.446Z,14.23
2022-10-12T09:38:02.166Z,14.00
2022-10-12T09:40:04.363Z,15.40
2022-10-12T09:42:06.109Z,14.53
2022-10-12T09:44:29.636Z,13.73
2022-10-12T09:46:46.321Z,12.90
2022-10-12T09:48:58.075Z,14.33
2022-10-12T09:51:03.388Z,14.33
2022-10-12T09:53:19.223Z,14.93
2022-10-12T09:57:37.625Z,12.63
2022-10-12T09:59:44.341Z,13.43
2022-10-12T10:01:59.051Z,13.87
2022-10-12T10:04:07.709Z,12.13
2022-10-12T10:06:09.522Z,13.03
2022-10-12T10:08:20.885Z,13.90
2022-10-12T10:10:29.409Z,12.40
2022-10-12T10:12:32.034Z,13.87
2022-10-12T10:14:35.404Z,13.90
2022-10-12T10:16:48.893Z,13.20
2022-10-12T10:18:57.155Z,13.07
2022-10-12T10:21:00.730Z,14.60
2022-10-12T10:23:05.156Z,13.70
2022-10-12T10:25:18.951Z,13.87
2022-10-12T10:27:37.708Z,13.97
2022-10-12T10:29:41.556Z,12.93
2022-10-12T10:31:46.113Z,13.50
2022-10-12T10:34:07.444Z,14.37
2022-10-12T10:36:22.236Z,12.77
2022-10-12T10:38:24.197Z,14.00
2022-10-12T10:40:31.633Z,13.57
2022-10-12T10:42:34.951Z,12.80
2022-10-12T10:44:37.391Z,12.33
2022-10-12T10:46:39.224Z,12.60
2022-10-12T10:48:53.223Z,13.43
2022-10-12T10:51:06.976Z,12.63
2022-10-12T10:53:19.489Z,12.97
2022-10-12T10:55:25.597Z,12.83
2022-10-12T10:57:27.822Z,13.73
2022-10-12T10:59:38.643Z,12.33
2022-10-12T11:02:00.702Z,12.10
2022-10-12T11:04:22.790Z,13.50
2022-10-12T11:06:30.467Z,13.47
2022-10-12T11:08:35.049Z,12.73
2022-10-12T11:10:53.331Z,12.90
2022-10-12T11:13:23.072Z,12.33
2022-10-12T11:15:50.118Z,12.33
2022-10-12T11:17:58.854Z,12.03
2022-10-12T11:20:03.497Z,12.50
2022-10-12T11:22:13.578Z,12.50
2022-10-12T11:24:20.432Z,12.63
2022-10-12T11:26:44.929Z,10.57
2022-10-12T11:28:46.769Z,11.73
2022-10-12T11:30:53.330Z,12.50
2022-10-12T11:33:04.755Z,12.57
2022-10-12T11:35:07.847Z,11.73
2022-10-12T11:37:20.543Z,11.37
2022-10-12T11:39:41.422Z,11.80
2022-10-12T11:42:16.765Z,11.00
2022-10-12T11:44:13.565Z,12.70
2022-10-12T11:46:19.409Z,12.27
2022-10-12T11:48:28.683Z,12.13
2022-10-12T11:50:35.760Z,11.40
2022-10-12T11:52:46.007Z,11.83
2022-10-12T11:54:50.515Z,11.77
2022-10-12T11:56:58.629Z,12.80
2022-10-12T11:59:06.455Z,11.13
2022-10-12T12:01:13.906Z,11.50
2022-10-12T12:03:49.418Z,11.63
2022-10-12T12:05:51.055Z,11.20
2022-10-12T12:07:54.198Z,12.27
2022-10-12T12:09:55.903Z,11.93
2022-10-12T12:12:09.709Z,10.03
2022-10-12T12:14:26.503Z,11.40
2022-10-12T12:16:32.567Z,12.50
2022-10-12T12:19:16.786Z,12.10
2022-10-12T12:21:18.517Z,11.87
2022-10-12T12:23:37.894Z,13.57
2022-10-12T12:25:39.565Z,11.93
2022-10-12T12:27:49.874Z,12.57
2022-10-12T12:29:53.469Z,11.90
2022-10-12T12:31:59.067Z,11.97
2022-10-12T12:34:07.427Z,12.37
2022-10-12T12:36:29.302Z,11.17
2022-10-12T12:38:37.466Z,12.67
2022-10-12T12:40:53.778Z,12.20
2022-10-12T12:43:19.482Z,11.53
2022-10-12T12:45:33.509Z,12.47
2022-10-12T12:47:45.450Z,11.80
2022-10-12T12:49:56.244Z,12.10
2022-10-12T12:51:59.695Z,11.67
2022-10-12T12:54:27.570Z,11.40
2022-10-12T12:57:00.060Z,11.70
2022-10-12T12:59:04.663Z,10.10
2022-10-12T13:01:28.512Z,11.20
2022-10-12T13:04:02.475Z,10.47
2022-10-12T13:06:18.499Z,12.03
2022-10-12T13:08:54.650Z,12.33
2022-10-12T13:11:02.046Z,11.63
2022-10-12T13:13:09.635Z,11.87
2022-10-12T13:15:32.550Z,11.77
2022-10-12T13:17:58.059Z,10.83
2022-10-12T13:20:08.941Z,11.97
2022-10-12T13:22:27.026Z,11.27
2022-10-12T13:24:50.304Z,10.80
2022-10-12T13:26:56.742Z,10.77
2022-10-12T13:29:01.321Z,10.63
2022-10-12T13:31:13.810Z,9.67
2022-10-12T13:33:37.738Z,11.40
2022-10-12T13:35:57.595Z,10.70
2022-10-12T13:38:02.106Z,11.03
2022-10-12T13:40:04.140Z,9.87
2022-10-12T13:42:06.476Z,11.40
2022-10-12T13:44:18.227Z,10.77
2022-10-12T13:46:35.107Z,10.57
2022-10-12T13:51:03.524Z,10.70
2022-10-12T13:53:15.003Z,10.97
2022-10-12T13:55:16.762Z,10.07
2022-10-12T13:57:31.927Z,9.37
2022-10-12T13:59:38.434Z,10.93
2022-10-12T14:02:13.681Z,9.73
2022-10-12T14:04:15.300Z,10.33
2022-10-12T14:06:47.069Z,10.23
2022-10-12T14:08:48.965Z,9.07
2022-10-12T14:10:50.846Z,10.07
2022-10-12T14:12:53.561Z,9.90
2022-10-12T14:14:55.781Z,9.60
2022-10-12T14:16:57.574Z,8.20
2022-10-12T14:19:19.507Z,10.50
2022-10-12T14:21:26.633Z,9.00
2022-10-12T14:23:28.368Z,9.27
2022-10-12T14:25:32.047Z,10.27
2022-10-12T14:27:34.893Z,9.53
2022-10-12T14:29:42.553Z,9.87
2022-10-12T14:31:56.705Z,7.93
2022-10-12T14:34:24.089Z,9.73
2022-10-12T14:36:26.705Z,10.17
2022-10-12T14:38:53.405Z,8.90
2022-10-12T14:40:55.090Z,9.20
2022-10-12T14:43:20.763Z,9.33
2022-10-12T14:45:25.427Z,8.83
2022-10-12T14:47:34.721Z,9.60
2022-10-12T14:49:41.011Z,9.83
2022-10-12T14:51:42.798Z,9.97
2022-10-12T14:53:44.425Z,10.03
2022-10-12T14:55:48.521Z,9.07
2022-10-12T14:57:52.828Z,9.60
2022-10-12T14:59:54.769Z,9.87
2022-10-12T15:01:56.413Z,9.40
2022-10-12T15:03:58.001Z,10.37
2022-10-12T15:05:59.698Z,11.40
2022-10-12T15:08:07.271Z,9.60
2022-10-12T15:10:09.646Z,9.90
2022-10-12T15:12:17.333Z,9.37
2022-10-12T15:14:18.960Z,9.33
2022-10-12T15:16:23.782Z,9.07
2022-10-12T15:18:25.733Z,9.70
2022-10-12T15:20:29.805Z,9.00
2022-10-12T15:22:31.453Z,9.73
2022-10-12T15:24:33.312Z,9.60
2022-10-12T15:26:37.691Z,9.83
2022-10-12T15:28:43.202Z,8.90
2022-10-12T15:31:11.726Z,8.50
2022-10-12T15:33:07.117Z,11.70
2022-10-12T15:35:22.779Z,9.67
2022-10-12T15:37:30.112Z,10.27
2022-10-12T15:39:31.908Z,10.97
2022-10-12T15:41:33.649Z,10.73
2022-10-12T15:43:38.093Z,9.73
2022-10-12T15:45:42.886Z,9.17
2022-10-12T15:47:47.967Z,9.40
2022-10-12T15:49:49.581Z,10.17
2022-10-12T15:51:53.559Z,10.30
2022-10-12T15:53:55.235Z,9.90
2022-10-12T15:55:57.120Z,10.03
2022-10-12T15:57:59.701Z,9.80
2022-10-12T16:00:01.339Z,9.60
2022-10-12T16:02:03.022Z,9.60
2022-10-12T16:04:06.741Z,8.97
2022-10-12T16:06:08.775Z,10.33
2022-10-12T16:08:10.415Z,9.20
2022-10-12T16:10:15.172Z,9.10
2022-10-12T16:12:16.834Z,9.47
2022-10-12T16:14:18.453Z,9.43
2022-10-12T16:16:20.508Z,10.10
2022-10-12T16:18:22.162Z,9.80
2022-10-12T16:20:24.806Z,10.67
2022-10-12T16:22:26.502Z,9.53
2022-10-12T16:24:28.170Z,10.17
2022-10-12T16:26:29.848Z,12.23
2022-10-12T16:28:31.670Z,10.60
2022-10-12T16:30:33.494Z,11.47
2022-10-12T16:32:35.266Z,11.07
2022-10-12T16:34:37.010Z,9.67
2022-10-12T16:36:38.727Z,10.33
2022-10-12T16:38:40.870Z,11.00
2022-10-12T16:40:42.844Z,11.17
2022-10-12T16:42:44.697Z,11.53
2022-10-12T16:44:46.494Z,15.47
2022-10-12T16:46:48.113Z,13.70
2022-10-12T16:48:49.762Z,13.40
2022-10-12T16:50:51.401Z,12.77
2022-10-12T16:52:53.017Z,12.53
2022-10-12T16:54:55.678Z,12.17
2022-10-12T16:56:57.627Z,11.77
2022-10-12T16:58:59.314Z,12.17
2022-10-12T17:01:11.971Z,12.33
2022-10-12T17:03:14.096Z,11.03
2022-10-12T17:05:16.039Z,12.70
2022-10-12T17:07:17.754Z,11.77
2022-10-12T17:09:19.400Z,11.80
2022-10-12T17:11:21.299Z,11.83
2022-10-12T17:13:22.941Z,12.50
2022-10-12T17:15:24.801Z,13.83
2022-10-12T17:17:26.487Z,13.23
2022-10-12T17:19:30.339Z,13.40
2022-10-12T17:21:32.204Z,13.67
2022-10-12T17:23:33.954Z,13.37
2022-10-12T17:25:35.602Z,13.80
2022-10-12T17:27:37.811Z,15.57
2022-10-12T17:29:40.295Z,13.87
2022-10-12T17:31:42.737Z,15.17
2022-10-12T17:33:44.373Z,13.33
2022-10-12T17:35:46.045Z,13.73
2022-10-12T17:37:47.688Z,15.00
2022-10-12T17:39:50.264Z,14.00
2022-10-12T17:41:54.034Z,14.47
2022-10-12T17:43:55.853Z,14.50
2022-10-12T17:45:57.580Z,15.83
2022-10-12T17:47:59.226Z,15.13
2022-10-12T17:50:00.835Z,14.47
2022-10-12T17:52:02.572Z,13.67
2022-10-12T17:54:05.709Z,14.93
2022-10-12T17:56:12.523Z,15.00
2022-10-12T17:58:14.118Z,15.10
2022-10-12T18:00:16.641Z,14.93
2022-10-12T18:02:18.318Z,14.30
2022-10-12T18:04:21.427Z,15.03
2022-10-12T18:06:23.954Z,13.20
2022-10-12T18:08:25.606Z,15.77
2022-10-12T18:10:28.611Z,15.40
2022-10-12T18:12:30.821Z,14.47
2022-10-12T18:14:32.444Z,15.97
2022-10-12T18:16:34.233Z,14.50
2022-10-12T18:18:35.972Z,14.70
2022-10-12T18:20:41.945Z,15.47
2022-10-12T18:22:43.722Z,16.00
2022-10-12T18:24:45.416Z,16.63
2022-10-12T18:26:47.629Z,16.20
2022-10-12T18:28:50.844Z,16.20
2022-10-12T18:30:52.550Z,16.60
2022-10-12T18:32:54.364Z,15.67
2022-10-12T18:34:55.982Z,16.77
2022-10-12T18:36:57.890Z,15.20
2022-10-12T18:39:01.877Z,15.53
2022-10-12T18:41:05.305Z,15.63
2022-10-12T18:43:07.027Z,15.13
2022-10-12T18:45:09.109Z,15.90
2022-10-12T18:47:10.837Z,17.27
2022-10-12T18:49:12.635Z,16.47
2022-10-12T18:51:23.225Z,16.17
2022-10-12T18:53:27.386Z,16.50
2022-10-12T18:55:29.059Z,17.40
2022-10-12T18:57:32.758Z,15.77
2022-10-12T18:59:36.220Z,15.87
2022-10-12T19:01:37.944Z,14.80
2022-10-12T19:03:40.026Z,14.63
2022-10-12T19:05:41.732Z,13.63
2022-10-12T19:07:43.569Z,14.07
2022-10-12T19:09:45.163Z,15.73
2022-10-12T19:11:46.810Z,14.90
2022-10-12T19:13:57.538Z,15.20
2022-10-12T19:16:13.511Z,15.50
2022-10-12T19:18:15.142Z,14.20
2022-10-12T19:20:16.864Z,13.87
2022-10-12T19:22:18.842Z,12.33
2022-10-12T19:24:21.605Z,14.20
2022-10-12T19:26:27.301Z,12.70
2022-10-12T19:28:28.953Z,13.30
2022-10-12T19:30:31.408Z,12.23
2022-10-12T19:32:33.560Z,15.27
2022-10-12T19:34:35.226Z,13.70
2022-10-12T19:36:37.980Z,12.37
2022-10-12T19:38:39.892Z,14.13
2022-10-12T19:40:43.294Z,14.67
2022-10-12T19:42:48.976Z,14.80
2022-10-12T19:44:50.638Z,15.40
2022-10-12T19:46:53.586Z,14.37
2022-10-12T19:48:57.453Z,14.47
2022-10-12T19:51:06.146Z,17.63
2022-10-12T19:53:08.416Z,15.50
2022-10-12T19:55:10.439Z,15.03
2022-10-12T19:57:12.082Z,15.73
2022-10-12T19:59:13.912Z,16.13
2022-10-12T20:01:18.620Z,17.77
2022-10-12T20:03:20.277Z,17.20
2022-10-12T20:05:21.956Z,16.90
2022-10-12T20:07:23.753Z,18.40
2022-10-12T20:09:25.589Z,17.83
2022-10-12T20:11:27.349Z,17.80
2022-10-12T20:13:29.676Z,18.70
2022-10-12T20:15:31.991Z,19.33
2022-10-12T20:17:33.620Z,19.73
2022-10-12T20:19:36.505Z,18.47
2022-10-12T20:21:38.305Z,19.17
2022-10-12T20:23:41.583Z,20.10
2022-10-12T20:25:49.250Z,19.37
2022-10-12T20:27:51.034Z,18.40
2022-10-12T20:29:52.690Z,20.47
2022-10-12T20:31:54.418Z,20.03
2022-10-12T20:33:57.817Z,20.70
2022-10-12T20:36:00.058Z,19.70
2022-10-12T20:38:02.251Z,21.87
2022-10-12T20:40:04.211Z,19.40
2022-10-12T20:42:05.890Z,19.43
2022-10-12T20:44:09.171Z,20.30
2022-10-12T20:46:13.674Z,19.47
2022-10-12T20:48:15.353Z,19.70
2022-10-12T20:50:17.114Z,20.77
2022-10-12T20:52:19.283Z,20.90
2022-10-12T20:54:22.830Z,20.17
2022-10-12T20:56:24.632Z,21.23
2022-10-12T20:58:28.150Z,21.17
2022-10-12T21:00:30.526Z,20.63
2022-10-12T21:02:33.555Z,21.30
2022-10-12T21:04:38.391Z,20.97
2022-10-12T21:06:42.536Z,20.43
2022-10-12T21:08:44.435Z,21.67
2022-10-12T21:10:47.378Z,21.30
2022-10-12T21:12:49.117Z,21.37
2022-10-12T21:14:50.859Z,21.73
2022-10-12T21:16:53.033Z,21.50
2022-10-12T21:18:55.409Z,22.30
2022-10-12T21:21:02.574Z,20.27
2022-10-12T21:23:04.214Z,21.90
2022-10-12T21:25:06.503Z,22.00
2022-10-12T21:27:08.188Z,22.30
2022-10-12T21:29:10.315Z,19.93
2022-10-12T21:31:13.661Z,20.70
2022-10-12T21:33:17.187Z,22.07
2022-10-12T21:35:19.074Z,21.97
2022-10-12T21:37:20.938Z,23.50
2022-10-12T21:39:22.823Z,22.50
2022-10-12T21:41:26.809Z,21.33
2022-10-12T21:43:28.442Z,21.30
2022-10-12T21:45:30.131Z,22.43
2022-10-12T21:47:32.325Z,23.10
2022-10-12T21:49:33.958Z,23.00
2022-10-12T21:51:36.700Z,21.40
2022-10-12T21:53:40.051Z,20.03
2022-10-12T21:55:41.665Z,21.07
2022-10-12T21:57:43.346Z,20.30
2022-10-12T21:59:47.467Z,19.77
2022-10-12T22:01:49.088Z,21.37
2022-10-12T22:03:55.893Z,22.00
2022-10-12T22:05:57.507Z,20.80
2022-10-12T22:07:59.134Z,22.57
2022-10-12T22:10:00.822Z,21.17
2022-10-12T22:12:02.509Z,23.87
2022-10-12T22:14:08.280Z,23.77
2022-10-12T22:16:12.944Z,22.47
2022-10-12T22:18:14.574Z,24.30
2022-10-12T22:20:16.251Z,23.30
2022-10-12T22:22:18.188Z,22.40
2022-10-12T22:24:20.887Z,23.70
2022-10-12T22:26:23.490Z,22.77
2022-10-12T22:28:25.203Z,22.47
2022-10-12T22:30:26.869Z,23.93
2022-10-12T22:32:28.636Z,23.20
2022-10-12T22:34:30.296Z,26.17
2022-10-12T22:36:32.960Z,23.57
2022-10-12T22:38:35.264Z,23.13
2022-10-12T22:40:36.921Z,24.07
2022-10-12T22:42:38.741Z,24.10
2022-10-12T22:44:40.366Z,26.30
2022-10-12T22:46:42.037Z,25.07
2022-10-12T22:48:43.723Z,24.73
2022-10-12T22:50:45.819Z,22.97
2022-10-12T22:52:47.454Z,23.20
2022-10-12T22:54:49.922Z,23.30
2022-10-12T22:56:51.652Z,24.30
2022-10-12T22:58:55.200Z,22.77
2022-10-12T23:01:09.001Z,23.67
2022-10-12T23:03:10.840Z,22.70
2022-10-12T23:05:12.538Z,23.17
2022-10-12T23:07:14.179Z,22.80
2022-10-12T23:09:15.848Z,22.70
2022-10-12T23:11:23.765Z,23.57
2022-10-12T23:13:25.406Z,23.33
2022-10-12T23:15:27.032Z,21.60
2022-10-12T23:17:28.708Z,20.70
2022-10-12T23:19:30.576Z,22.00
2022-10-12T23:21:34.136Z,22.40
2022-10-12T23:23:36.992Z,21.07
2022-10-12T23:25:38.697Z,22.23
2022-10-12T23:27:40.295Z,23.10
2022-10-12T23:29:42.690Z,20.47
2022-10-12T23:31:44.314Z,20.63
2022-10-12T23:33:46.071Z,21.43
2022-10-12T23:35:58.449Z,20.80
2022-10-12T23:38:00.093Z,21.40
2022-10-12T23:40:01.686Z,20.10
2022-10-12T23:42:03.364Z,22.30
2022-10-12T23:44:05.265Z,20.60
2022-10-12T23:46:07.254Z,19.93
2022-10-12T23:48:08.840Z,21.73
2022-10-12T23:50:10.597Z,20.30
2022-10-12T23:52:13.081Z,21.10
2022-10-12T23:54:14.721Z,19.70
2022-10-12T23:56:16.461Z,21.60
2022-10-12T23:58:18.256Z,19.73
